sensor_id;sensor_type;location;lat;lon;timestamp;P1;durP1;ratioP1;P2;durP2;ratioP2
76731;SDS011;65656;51.130;13.658;2023-08-20T00:00:29;18.15;;;16.55;;
76731;SDS011;65656;51.130;13.658;2023-08-20T00:04:32;19.67;;;17.77;;
76731;SDS011;65656;51.130;13.658;2023-08-20T00:08:37;18.50;;;16.77;;
76731;SDS011;65656;51.130;13.658;2023-08-20T00:12:39;22.35;;;20.42;;
76731;SDS011;65656;51.130;13.658;2023-08-20T00:16:40;19.50;;;17.83;;
76731;SDS011;65656;51.130;13.658;2023-08-20T00:20:44;17.05;;;15.40;;
76731;SDS011;65656;51.130;13.658;2023-08-20T00:24:46;18.40;;;16.67;;
76731;SDS011;65656;51.130;13.658;2023-08-20T00:28:48;16.63;;;14.95;;
76731;SDS011;65656;51.130;13.658;2023-08-20T00:32:50;16.50;;;14.77;;
76731;SDS011;65656;51.130;13.658;2023-08-20T00:36:53;15.32;;;13.70;;
76731;SDS011;65656;51.130;13.658;2023-08-20T00:40:54;11.77;;;10.35;;
76731;SDS011;65656;51.130;13.658;2023-08-20T00:44:56;14.70;;;13.23;;
76731;SDS011;65656;51.130;13.658;2023-08-20T00:48:58;14.43;;;13.07;;
76731;SDS011;65656;51.130;13.658;2023-08-20T00:53:01;17.40;;;15.82;;
76731;SDS011;65656;51.130;13.658;2023-08-20T00:57:03;14.90;;;11.38;;
76731;SDS011;65656;51.130;13.658;2023-08-20T01:01:05;14.15;;;12.95;;
76731;SDS011;65656;51.130;13.658;2023-08-20T01:05:07;13.68;;;11.43;;
76731;SDS011;65656;51.130;13.658;2023-08-20T01:13:19;13.38;;;12.07;;
76731;SDS011;65656;51.130;13.658;2023-08-20T01:17:20;10.65;;;9.55;;
76731;SDS011;65656;51.130;13.658;2023-08-20T01:21:24;12.77;;;11.68;;
76731;SDS011;65656;51.130;13.658;2023-08-20T01:25:45;15.30;;;13.90;;
76731;SDS011;65656;51.130;13.658;2023-08-20T01:29:58;14.65;;;13.43;;
76731;SDS011;65656;51.130;13.658;2023-08-20T01:34:01;15.85;;;14.55;;
76731;SDS011;65656;51.130;13.658;2023-08-20T01:38:03;16.77;;;15.32;;
76731;SDS011;65656;51.130;13.658;2023-08-20T01:42:05;18.65;;;16.70;;
76731;SDS011;65656;51.130;13.658;2023-08-20T01:46:09;13.55;;;11.48;;
76731;SDS011;65656;51.130;13.658;2023-08-20T01:50:11;17.52;;;15.93;;
76731;SDS011;65656;51.130;13.658;2023-08-20T01:54:12;15.13;;;13.82;;
76731;SDS011;65656;51.130;13.658;2023-08-20T01:58:14;19.67;;;17.77;;
76731;SDS011;65656;51.130;13.658;2023-08-20T02:02:17;19.40;;;17.85;;
76731;SDS011;65656;51.130;13.658;2023-08-20T02:06:18;14.45;;;13.13;;
76731;SDS011;65656;51.130;13.658;2023-08-20T02:10:20;15.18;;;13.77;;
76731;SDS011;65656;51.130;13.658;2023-08-20T02:14:22;14.05;;;12.57;;
76731;SDS011;65656;51.130;13.658;2023-08-20T02:18:25;15.50;;;14.20;;
76731;SDS011;65656;51.130;13.658;2023-08-20T02:22:26;16.75;;;15.25;;
76731;SDS011;65656;51.130;13.658;2023-08-20T02:26:28;14.65;;;13.35;;
76731;SDS011;65656;51.130;13.658;2023-08-20T02:30:29;13.98;;;12.70;;
76731;SDS011;65656;51.130;13.658;2023-08-20T02:34:32;16.25;;;13.90;;
76731;SDS011;65656;51.130;13.658;2023-08-20T02:38:34;11.63;;;8.82;;
76731;SDS011;65656;51.130;13.658;2023-08-20T02:42:36;14.02;;;12.73;;
76731;SDS011;65656;51.130;13.658;2023-08-20T02:46:37;13.13;;;11.13;;
76731;SDS011;65656;51.130;13.658;2023-08-20T02:50:40;14.02;;;12.75;;
76731;SDS011;65656;51.130;13.658;2023-08-20T02:54:42;15.18;;;13.70;;
76731;SDS011;65656;51.130;13.658;2023-08-20T02:58:43;10.73;;;9.70;;
76731;SDS011;65656;51.130;13.658;2023-08-20T03:02:45;13.60;;;12.32;;
76731;SDS011;65656;51.130;13.658;2023-08-20T03:06:48;9.77;;;8.75;;
76731;SDS011;65656;51.130;13.658;2023-08-20T03:10:49;12.82;;;11.32;;
76731;SDS011;65656;51.130;13.658;2023-08-20T03:14:51;12.25;;;11.10;;
76731;SDS011;65656;51.130;13.658;2023-08-20T03:18:53;20.15;;;18.63;;
76731;SDS011;65656;51.130;13.658;2023-08-20T03:22:56;9.68;;;8.55;;
76731;SDS011;65656;51.130;13.658;2023-08-20T03:26:57;13.88;;;12.55;;
76731;SDS011;65656;51.130;13.658;2023-08-20T03:30:59;14.68;;;13.27;;
76731;SDS011;65656;51.130;13.658;2023-08-20T03:35:01;12.65;;;7.72;;
76731;SDS011;65656;51.130;13.658;2023-08-20T03:39:04;12.18;;;10.98;;
76731;SDS011;65656;51.130;13.658;2023-08-20T03:43:06;13.52;;;12.32;;
76731;SDS011;65656;51.130;13.658;2023-08-20T03:47:07;12.73;;;11.43;;
76731;SDS011;65656;51.130;13.658;2023-08-20T03:51:10;13.23;;;10.73;;
76731;SDS011;65656;51.130;13.658;2023-08-20T03:55:13;12.93;;;11.50;;
76731;SDS011;65656;51.130;13.658;2023-08-20T03:59:14;15.90;;;14.43;;
76731;SDS011;65656;51.130;13.658;2023-08-20T04:03:16;12.80;;;11.43;;
76731;SDS011;65656;51.130;13.658;2023-08-20T04:07:17;15.25;;;13.80;;
76731;SDS011;65656;51.130;13.658;2023-08-20T04:11:20;13.77;;;11.05;;
76731;SDS011;65656;51.130;13.658;2023-08-20T04:15:22;13.02;;;11.73;;
76731;SDS011;65656;51.130;13.658;2023-08-20T04:19:24;16.10;;;14.45;;
76731;SDS011;65656;51.130;13.658;2023-08-20T04:23:25;16.38;;;13.10;;
76731;SDS011;65656;51.130;13.658;2023-08-20T04:27:28;13.50;;;12.13;;
76731;SDS011;65656;51.130;13.658;2023-08-20T04:31:30;10.30;;;9.27;;
76731;SDS011;65656;51.130;13.658;2023-08-20T04:35:31;13.20;;;11.90;;
76731;SDS011;65656;51.130;13.658;2023-08-20T04:39:33;14.25;;;12.95;;
76731;SDS011;65656;51.130;13.658;2023-08-20T04:43:36;14.80;;;12.20;;
76731;SDS011;65656;51.130;13.658;2023-08-20T04:47:38;15.50;;;14.02;;
76731;SDS011;65656;51.130;13.658;2023-08-20T04:51:40;15.43;;;13.82;;
76731;SDS011;65656;51.130;13.658;2023-08-20T04:55:41;10.60;;;9.50;;
76731;SDS011;65656;51.130;13.658;2023-08-20T04:59:44;13.15;;;11.75;;
76731;SDS011;65656;51.130;13.658;2023-08-20T05:03:46;14.73;;;13.52;;
76731;SDS011;65656;51.130;13.658;2023-08-20T05:07:48;11.52;;;9.35;;
76731;SDS011;65656;51.130;13.658;2023-08-20T05:11:49;16.27;;;14.80;;
76731;SDS011;65656;51.130;13.658;2023-08-20T05:15:52;16.20;;;14.55;;
76731;SDS011;65656;51.130;13.658;2023-08-20T05:19:54;14.82;;;13.30;;
76731;SDS011;65656;51.130;13.658;2023-08-20T05:23:55;15.45;;;13.93;;
76731;SDS011;65656;51.130;13.658;2023-08-20T05:27:57;15.63;;;14.32;;
76731;SDS011;65656;51.130;13.658;2023-08-20T05:32:00;12.57;;;10.82;;
76731;SDS011;65656;51.130;13.658;2023-08-20T05:36:01;13.55;;;12.25;;
76731;SDS011;65656;51.130;13.658;2023-08-20T05:40:03;14.73;;;13.38;;
76731;SDS011;65656;51.130;13.658;2023-08-20T05:44:06;14.52;;;12.98;;
76731;SDS011;65656;51.130;13.658;2023-08-20T05:48:08;13.50;;;12.30;;
76731;SDS011;65656;51.130;13.658;2023-08-20T05:52:10;16.05;;;12.68;;
76731;SDS011;65656;51.130;13.658;2023-08-20T05:56:12;15.13;;;13.82;;
76731;SDS011;65656;51.130;13.658;2023-08-20T06:00:13;13.90;;;12.18;;
76731;SDS011;65656;51.130;13.658;2023-08-20T06:04:16;12.95;;;11.70;;
76731;SDS011;65656;51.130;13.658;2023-08-20T06:08:18;13.75;;;12.25;;
76731;SDS011;65656;51.130;13.658;2023-08-20T06:12:19;13.27;;;11.98;;
76731;SDS011;65656;51.130;13.658;2023-08-20T06:16:21;12.82;;;11.63;;
76731;SDS011;65656;51.130;13.658;2023-08-20T06:20:24;15.40;;;14.02;;
76731;SDS011;65656;51.130;13.658;2023-08-20T06:24:26;14.05;;;11.02;;
76731;SDS011;65656;51.130;13.658;2023-08-20T06:28:27;14.57;;;13.18;;
76731;SDS011;65656;51.130;13.658;2023-08-20T06:32:29;14.93;;;13.32;;
76731;SDS011;65656;51.130;13.658;2023-08-20T06:36:32;14.60;;;13.20;;
76731;SDS011;65656;51.130;13.658;2023-08-20T06:40:33;14.38;;;12.98;;
76731;SDS011;65656;51.130;13.658;2023-08-20T06:44:35;11.23;;;9.57;;
76731;SDS011;65656;51.130;13.658;2023-08-20T06:48:44;15.05;;;13.60;;
76731;SDS011;65656;51.130;13.658;2023-08-20T06:52:47;12.63;;;11.38;;
76731;SDS011;65656;51.130;13.658;2023-08-20T06:56:48;14.65;;;13.15;;
76731;SDS011;65656;51.130;13.658;2023-08-20T07:00:51;11.40;;;9.73;;
76731;SDS011;65656;51.130;13.658;2023-08-20T07:04:52;13.88;;;12.35;;
76731;SDS011;65656;51.130;13.658;2023-08-20T07:08:56;14.30;;;12.90;;
76731;SDS011;65656;51.130;13.658;2023-08-20T07:12:57;13.73;;;12.32;;
76731;SDS011;65656;51.130;13.658;2023-08-20T07:16:59;14.05;;;12.57;;
76731;SDS011;65656;51.130;13.658;2023-08-20T07:21:01;15.02;;;12.45;;
76731;SDS011;65656;51.130;13.658;2023-08-20T07:25:04;13.85;;;12.52;;
76731;SDS011;65656;51.130;13.658;2023-08-20T07:29:06;15.43;;;13.85;;
76731;SDS011;65656;51.130;13.658;2023-08-20T07:33:07;15.55;;;14.18;;
76731;SDS011;65656;51.130;13.658;2023-08-20T07:37:09;13.32;;;12.13;;
76731;SDS011;65656;51.130;13.658;2023-08-20T07:41:12;13.60;;;12.20;;
76731;SDS011;65656;51.130;13.658;2023-08-20T07:45:14;13.93;;;12.18;;
76731;SDS011;65656;51.130;13.658;2023-08-20T07:49:15;16.02;;;12.90;;
76731;SDS011;65656;51.130;13.658;2023-08-20T07:53:17;13.07;;;11.70;;
76731;SDS011;65656;51.130;13.658;2023-08-20T07:57:20;13.60;;;12.25;;
76731;SDS011;65656;51.130;13.658;2023-08-20T08:01:21;13.02;;;11.70;;
76731;SDS011;65656;51.130;13.658;2023-08-20T08:05:23;15.48;;;13.98;;
76731;SDS011;65656;51.130;13.658;2023-08-20T08:09:26;13.07;;;11.95;;
76731;SDS011;65656;51.130;13.658;2023-08-20T08:13:29;14.25;;;12.98;;
76731;SDS011;65656;51.130;13.658;2023-08-20T08:17:31;14.32;;;13.05;;
76731;SDS011;65656;51.130;13.658;2023-08-20T08:21:32;13.05;;;9.32;;
76731;SDS011;65656;51.130;13.658;2023-08-20T08:25:34;14.38;;;13.07;;
76731;SDS011;65656;51.130;13.658;2023-08-20T08:29:37;14.00;;;12.80;;
76731;SDS011;65656;51.130;13.658;2023-08-20T08:33:39;15.93;;;9.75;;
76731;SDS011;65656;51.130;13.658;2023-08-20T08:37:40;14.43;;;13.15;;
76731;SDS011;65656;51.130;13.658;2023-08-20T08:41:42;16.00;;;14.43;;
76731;SDS011;65656;51.130;13.658;2023-08-20T08:45:46;26.40;;;24.08;;
76731;SDS011;65656;51.130;13.658;2023-08-20T08:49:48;18.05;;;16.33;;
76731;SDS011;65656;51.130;13.658;2023-08-20T08:53:51;17.83;;;16.17;;
76731;SDS011;65656;51.130;13.658;2023-08-20T08:57:54;18.25;;;16.33;;
76731;SDS011;65656;51.130;13.658;2023-08-20T09:01:57;20.00;;;18.17;;
76731;SDS011;65656;51.130;13.658;2023-08-20T09:06:00;20.05;;;18.25;;
76731;SDS011;65656;51.130;13.658;2023-08-20T09:10:02;21.00;;;17.15;;
76731;SDS011;65656;51.130;13.658;2023-08-20T09:14:04;17.90;;;16.08;;
76731;SDS011;65656;51.130;13.658;2023-08-20T09:18:08;20.20;;;18.20;;
76731;SDS011;65656;51.130;13.658;2023-08-20T09:22:11;16.85;;;15.15;;
76731;SDS011;65656;51.130;13.658;2023-08-20T09:26:13;17.13;;;15.55;;
76731;SDS011;65656;51.130;13.658;2023-08-20T09:30:17;16.20;;;14.35;;
76731;SDS011;65656;51.130;13.658;2023-08-20T09:34:20;17.15;;;15.63;;
76731;SDS011;65656;51.130;13.658;2023-08-20T09:38:23;13.48;;;12.27;;
76731;SDS011;65656;51.130;13.658;2023-08-20T09:42:25;15.77;;;14.25;;
76731;SDS011;65656;51.130;13.658;2023-08-20T09:46:27;16.65;;;15.00;;
76731;SDS011;65656;51.130;13.658;2023-08-20T09:50:34;17.92;;;16.33;;
76731;SDS011;65656;51.130;13.658;2023-08-20T09:54:46;13.50;;;11.93;;
76731;SDS011;65656;51.130;13.658;2023-08-20T09:58:56;18.00;;;14.93;;
76731;SDS011;65656;51.130;13.658;2023-08-20T10:02:58;16.15;;;14.45;;
76731;SDS011;65656;51.130;13.658;2023-08-20T10:07:02;16.00;;;14.50;;
76731;SDS011;65656;51.130;13.658;2023-08-20T10:11:05;17.25;;;15.63;;
76731;SDS011;65656;51.130;13.658;2023-08-20T10:15:07;14.63;;;13.20;;
76731;SDS011;65656;51.130;13.658;2023-08-20T10:19:10;14.90;;;13.50;;
76731;SDS011;65656;51.130;13.658;2023-08-20T10:23:14;15.30;;;13.80;;
76731;SDS011;65656;51.130;13.658;2023-08-20T10:27:25;13.55;;;12.40;;
76731;SDS011;65656;51.130;13.658;2023-08-20T10:31:27;15.70;;;14.20;;
76731;SDS011;65656;51.130;13.658;2023-08-20T10:35:46;15.00;;;13.65;;
76731;SDS011;65656;51.130;13.658;2023-08-20T10:39:54;16.67;;;15.07;;
76731;SDS011;65656;51.130;13.658;2023-08-20T10:43:57;14.18;;;12.88;;
76731;SDS011;65656;51.130;13.658;2023-08-20T10:47:59;10.60;;;9.45;;
76731;SDS011;65656;51.130;13.658;2023-08-20T10:52:01;16.23;;;14.52;;
76731;SDS011;65656;51.130;13.658;2023-08-20T10:56:15;14.32;;;13.02;;
76731;SDS011;65656;51.130;13.658;2023-08-20T11:00:17;12.85;;;11.55;;
76731;SDS011;65656;51.130;13.658;2023-08-20T11:04:20;13.68;;;12.48;;
76731;SDS011;65656;51.130;13.658;2023-08-20T11:08:22;9.23;;;8.32;;
76731;SDS011;65656;51.130;13.658;2023-08-20T11:12:28;12.52;;;11.23;;
76731;SDS011;65656;51.130;13.658;2023-08-20T11:16:30;13.20;;;12.00;;
76731;SDS011;65656;51.130;13.658;2023-08-20T11:20:32;11.45;;;8.55;;
76731;SDS011;65656;51.130;13.658;2023-08-20T11:24:34;14.07;;;12.75;;
76731;SDS011;65656;51.130;13.658;2023-08-20T11:28:37;13.23;;;11.25;;
76731;SDS011;65656;51.130;13.658;2023-08-20T11:32:38;14.52;;;13.30;;
76731;SDS011;65656;51.130;13.658;2023-08-20T11:36:40;12.15;;;11.07;;
76731;SDS011;65656;51.130;13.658;2023-08-20T11:40:42;11.98;;;10.88;;
76731;SDS011;65656;51.130;13.658;2023-08-20T11:44:45;10.45;;;9.40;;
76731;SDS011;65656;51.130;13.658;2023-08-20T11:49:01;11.30;;;10.25;;
76731;SDS011;65656;51.130;13.658;2023-08-20T11:53:03;9.63;;;7.35;;
76731;SDS011;65656;51.130;13.658;2023-08-20T11:57:05;11.00;;;9.90;;
76731;SDS011;65656;51.130;13.658;2023-08-20T12:01:09;13.65;;;12.32;;
76731;SDS011;65656;51.130;13.658;2023-08-20T12:05:10;11.35;;;10.25;;
76731;SDS011;65656;51.130;13.658;2023-08-20T12:09:18;11.52;;;10.35;;
76731;SDS011;65656;51.130;13.658;2023-08-20T12:13:20;11.63;;;10.48;;
76731;SDS011;65656;51.130;13.658;2023-08-20T12:17:23;10.88;;;9.98;;
76731;SDS011;65656;51.130;13.658;2023-08-20T12:21:25;9.07;;;8.02;;
76731;SDS011;65656;51.130;13.658;2023-08-20T12:25:26;11.80;;;10.70;;
76731;SDS011;65656;51.130;13.658;2023-08-20T12:29:31;9.20;;;6.85;;
76731;SDS011;65656;51.130;13.658;2023-08-20T12:33:34;10.40;;;9.45;;
76731;SDS011;65656;51.130;13.658;2023-08-20T12:37:35;9.10;;;7.68;;
76731;SDS011;65656;51.130;13.658;2023-08-20T12:41:37;8.65;;;7.68;;
76731;SDS011;65656;51.130;13.658;2023-08-20T12:45:39;11.32;;;9.05;;
76731;SDS011;65656;51.130;13.658;2023-08-20T12:49:42;8.95;;;8.00;;
76731;SDS011;65656;51.130;13.658;2023-08-20T12:53:44;9.80;;;9.00;;
76731;SDS011;65656;51.130;13.658;2023-08-20T12:57:52;10.90;;;9.82;;
76731;SDS011;65656;51.130;13.658;2023-08-20T13:01:54;10.88;;;8.07;;
76731;SDS011;65656;51.130;13.658;2023-08-20T13:05:58;9.95;;;9.07;;
76731;SDS011;65656;51.130;13.658;2023-08-20T13:10:00;8.60;;;7.80;;
76731;SDS011;65656;51.130;13.658;2023-08-20T13:14:02;10.35;;;9.48;;
76731;SDS011;65656;51.130;13.658;2023-08-20T13:18:04;9.57;;;8.68;;
76731;SDS011;65656;51.130;13.658;2023-08-20T13:22:08;8.55;;;7.75;;
76731;SDS011;65656;51.130;13.658;2023-08-20T13:26:10;9.57;;;8.68;;
76731;SDS011;65656;51.130;13.658;2023-08-20T13:30:11;9.75;;;8.75;;
76731;SDS011;65656;51.130;13.658;2023-08-20T13:34:13;9.27;;;8.48;;
76731;SDS011;65656;51.130;13.658;2023-08-20T13:38:16;9.23;;;8.32;;
76731;SDS011;65656;51.130;13.658;2023-08-20T13:42:17;11.63;;;10.73;;
76731;SDS011;65656;51.130;13.658;2023-08-20T13:46:22;8.90;;;8.00;;
76731;SDS011;65656;51.130;13.658;2023-08-20T13:50:23;7.82;;;7.05;;
76731;SDS011;65656;51.130;13.658;2023-08-20T13:54:26;10.48;;;9.57;;
76731;SDS011;65656;51.130;13.658;2023-08-20T13:58:28;8.85;;;8.02;;
76731;SDS011;65656;51.130;13.658;2023-08-20T14:02:29;8.90;;;8.10;;
76731;SDS011;65656;51.130;13.658;2023-08-20T14:06:31;7.80;;;7.00;;
76731;SDS011;65656;51.130;13.658;2023-08-20T14:10:34;8.32;;;7.18;;
76731;SDS011;65656;51.130;13.658;2023-08-20T14:14:36;9.43;;;8.60;;
76731;SDS011;65656;51.130;13.658;2023-08-20T14:18:37;8.93;;;8.13;;
76731;SDS011;65656;51.130;13.658;2023-08-20T14:22:39;9.80;;;8.98;;
76731;SDS011;65656;51.130;13.658;2023-08-20T14:26:42;9.98;;;8.98;;
76731;SDS011;65656;51.130;13.658;2023-08-20T14:30:44;9.68;;;8.38;;
76731;SDS011;65656;51.130;13.658;2023-08-20T14:34:45;8.15;;;6.22;;
76731;SDS011;65656;51.130;13.658;2023-08-20T14:38:47;8.77;;;7.75;;
76731;SDS011;65656;51.130;13.658;2023-08-20T14:42:50;7.90;;;7.22;;
76731;SDS011;65656;51.130;13.658;2023-08-20T14:46:51;7.57;;;6.82;;
76731;SDS011;65656;51.130;13.658;2023-08-20T14:50:53;6.97;;;6.28;;
76731;SDS011;65656;51.130;13.658;2023-08-20T14:54:55;8.70;;;7.90;;
76731;SDS011;65656;51.130;13.658;2023-08-20T14:58:58;8.68;;;6.05;;
76731;SDS011;65656;51.130;13.658;2023-08-20T15:02:59;7.18;;;5.95;;
76731;SDS011;65656;51.130;13.658;2023-08-20T15:07:01;9.07;;;8.27;;
76731;SDS011;65656;51.130;13.658;2023-08-20T15:11:03;9.82;;;8.90;;
76731;SDS011;65656;51.130;13.658;2023-08-20T15:15:06;6.72;;;6.07;;
76731;SDS011;65656;51.130;13.658;2023-08-20T15:19:08;10.20;;;9.18;;
76731;SDS011;65656;51.130;13.658;2023-08-20T15:23:10;6.88;;;6.03;;
76731;SDS011;65656;51.130;13.658;2023-08-20T15:27:11;9.30;;;7.25;;
76731;SDS011;65656;51.130;13.658;2023-08-20T15:31:14;7.00;;;6.30;;
76731;SDS011;65656;51.130;13.658;2023-08-20T15:35:16;11.35;;;7.03;;
76731;SDS011;65656;51.130;13.658;2023-08-20T15:39:17;6.65;;;5.97;;
76731;SDS011;65656;51.130;13.658;2023-08-20T15:43:19;8.52;;;7.63;;
76731;SDS011;65656;51.130;13.658;2023-08-20T15:47:22;7.93;;;5.60;;
76731;SDS011;65656;51.130;13.658;2023-08-20T15:51:24;7.40;;;6.70;;
76731;SDS011;65656;51.130;13.658;2023-08-20T15:55:25;9.95;;;5.97;;
76731;SDS011;65656;51.130;13.658;2023-08-20T15:59:27;8.73;;;5.70;;
76731;SDS011;65656;51.130;13.658;2023-08-20T16:03:30;6.95;;;5.65;;
76731;SDS011;65656;51.130;13.658;2023-08-20T16:07:32;7.30;;;5.88;;
76731;SDS011;65656;51.130;13.658;2023-08-20T16:11:34;7.13;;;6.40;;
76731;SDS011;65656;51.130;13.658;2023-08-20T16:15:35;7.75;;;6.15;;
76731;SDS011;65656;51.130;13.658;2023-08-20T16:19:39;8.60;;;7.07;;
76731;SDS011;65656;51.130;13.658;2023-08-20T16:23:41;7.38;;;6.45;;
76731;SDS011;65656;51.130;13.658;2023-08-20T16:27:43;7.47;;;6.53;;
76731;SDS011;65656;51.130;13.658;2023-08-20T16:31:45;8.85;;;6.95;;
76731;SDS011;65656;51.130;13.658;2023-08-20T16:35:48;7.80;;;7.03;;
76731;SDS011;65656;51.130;13.658;2023-08-20T16:39:50;9.70;;;7.20;;
76731;SDS011;65656;51.130;13.658;2023-08-20T16:43:51;10.38;;;9.07;;
76731;SDS011;65656;51.130;13.658;2023-08-20T16:47:53;6.88;;;6.25;;
76731;SDS011;65656;51.130;13.658;2023-08-20T16:51:56;9.05;;;7.80;;
76731;SDS011;65656;51.130;13.658;2023-08-20T16:55:57;9.00;;;8.27;;
76731;SDS011;65656;51.130;13.658;2023-08-20T16:59:59;8.88;;;8.07;;
76731;SDS011;65656;51.130;13.658;2023-08-20T17:04:01;8.40;;;7.57;;
76731;SDS011;65656;51.130;13.658;2023-08-20T17:08:04;8.82;;;8.02;;
76731;SDS011;65656;51.130;13.658;2023-08-20T17:12:06;8.60;;;6.57;;
76731;SDS011;65656;51.130;13.658;2023-08-20T17:16:08;10.27;;;9.30;;
76731;SDS011;65656;51.130;13.658;2023-08-20T17:20:11;12.15;;;11.13;;
76731;SDS011;65656;51.130;13.658;2023-08-20T17:24:13;9.52;;;8.02;;
76731;SDS011;65656;51.130;13.658;2023-08-20T17:28:15;5.68;;;4.70;;
76731;SDS011;65656;51.130;13.658;2023-08-20T17:32:17;12.45;;;8.38;;
76731;SDS011;65656;51.130;13.658;2023-08-20T17:36:18;9.07;;;7.28;;
76731;SDS011;65656;51.130;13.658;2023-08-20T17:40:21;7.22;;;6.63;;
76731;SDS011;65656;51.130;13.658;2023-08-20T17:44:23;9.30;;;6.50;;
76731;SDS011;65656;51.130;13.658;2023-08-20T17:48:24;6.78;;;6.15;;
76731;SDS011;65656;51.130;13.658;2023-08-20T17:52:26;6.05;;;5.43;;
76731;SDS011;65656;51.130;13.658;2023-08-20T17:56:29;5.28;;;4.00;;
76731;SDS011;65656;51.130;13.658;2023-08-20T18:00:31;8.05;;;7.03;;
76731;SDS011;65656;51.130;13.658;2023-08-20T18:04:32;7.85;;;6.78;;
76731;SDS011;65656;51.130;13.658;2023-08-20T18:08:34;9.50;;;8.75;;
76731;SDS011;65656;51.130;13.658;2023-08-20T18:12:37;7.18;;;5.90;;
76731;SDS011;65656;51.130;13.658;2023-08-20T18:16:39;7.25;;;6.55;;
76731;SDS011;65656;51.130;13.658;2023-08-20T18:20:41;7.88;;;7.18;;
76731;SDS011;65656;51.130;13.658;2023-08-20T18:24:43;7.47;;;6.78;;
76731;SDS011;65656;51.130;13.658;2023-08-20T18:28:46;9.32;;;6.55;;
76731;SDS011;65656;51.130;13.658;2023-08-20T18:32:47;7.60;;;6.90;;
76731;SDS011;65656;51.130;13.658;2023-08-20T18:36:49;8.38;;;5.43;;
76731;SDS011;65656;51.130;13.658;2023-08-20T18:40:50;8.77;;;7.97;;
76731;SDS011;65656;51.130;13.658;2023-08-20T18:44:53;7.97;;;7.28;;
76731;SDS011;65656;51.130;13.658;2023-08-20T18:48:55;8.75;;;7.95;;
76731;SDS011;65656;51.130;13.658;2023-08-20T18:52:56;7.78;;;7.07;;
76731;SDS011;65656;51.130;13.658;2023-08-20T18:56:58;9.02;;;7.05;;
76731;SDS011;65656;51.130;13.658;2023-08-20T19:01:01;7.55;;;6.80;;
76731;SDS011;65656;51.130;13.658;2023-08-20T19:05:03;9.00;;;8.20;;
76731;SDS011;65656;51.130;13.658;2023-08-20T19:09:05;8.60;;;7.80;;
76731;SDS011;65656;51.130;13.658;2023-08-20T19:13:07;9.02;;;8.13;;
76731;SDS011;65656;51.130;13.658;2023-08-20T19:17:10;12.05;;;10.77;;
76731;SDS011;65656;51.130;13.658;2023-08-20T19:21:11;7.60;;;6.90;;
76731;SDS011;65656;51.130;13.658;2023-08-20T19:25:13;7.95;;;7.18;;
76731;SDS011;65656;51.130;13.658;2023-08-20T19:29:14;10.70;;;9.80;;
76731;SDS011;65656;51.130;13.658;2023-08-20T19:33:17;9.65;;;8.75;;
76731;SDS011;65656;51.130;13.658;2023-08-20T19:37:19;10.20;;;9.27;;
76731;SDS011;65656;51.130;13.658;2023-08-20T19:41:21;11.60;;;10.65;;
76731;SDS011;65656;51.130;13.658;2023-08-20T19:45:23;11.32;;;7.65;;
76731;SDS011;65656;51.130;13.658;2023-08-20T19:49:25;7.85;;;7.05;;
76731;SDS011;65656;51.130;13.658;2023-08-20T19:53:27;8.65;;;7.85;;
76731;SDS011;65656;51.130;13.658;2023-08-20T19:57:29;10.35;;;8.88;;
76731;SDS011;65656;51.130;13.658;2023-08-20T20:01:30;7.88;;;7.13;;
76731;SDS011;65656;51.130;13.658;2023-08-20T20:05:47;9.30;;;8.25;;
76731;SDS011;65656;51.130;13.658;2023-08-20T20:09:49;5.95;;;5.40;;
76731;SDS011;65656;51.130;13.658;2023-08-20T20:13:50;8.30;;;7.50;;
76731;SDS011;65656;51.130;13.658;2023-08-20T20:17:52;10.95;;;10.13;;
76731;SDS011;65656;51.130;13.658;2023-08-20T20:21:55;9.20;;;8.30;;
76731;SDS011;65656;51.130;13.658;2023-08-20T20:25:56;10.55;;;9.52;;
76731;SDS011;65656;51.130;13.658;2023-08-20T20:29:58;8.95;;;8.15;;
76731;SDS011;65656;51.130;13.658;2023-08-20T20:34:00;9.35;;;8.45;;
76731;SDS011;65656;51.130;13.658;2023-08-20T20:38:03;9.18;;;6.47;;
76731;SDS011;65656;51.130;13.658;2023-08-20T20:42:05;9.40;;;8.50;;
76731;SDS011;65656;51.130;13.658;2023-08-20T20:46:07;7.38;;;5.25;;
76731;SDS011;65656;51.130;13.658;2023-08-20T20:50:09;10.13;;;9.18;;
76731;SDS011;65656;51.130;13.658;2023-08-20T20:54:12;10.32;;;9.38;;
76731;SDS011;65656;51.130;13.658;2023-08-20T20:58:13;9.68;;;8.77;;
76731;SDS011;65656;51.130;13.658;2023-08-20T21:02:15;10.05;;;9.05;;
76731;SDS011;65656;51.130;13.658;2023-08-20T21:06:17;12.00;;;10.82;;
76731;SDS011;65656;51.130;13.658;2023-08-20T21:10:20;13.68;;;12.68;;
76731;SDS011;65656;51.130;13.658;2023-08-20T21:14:21;11.35;;;8.82;;
76731;SDS011;65656;51.130;13.658;2023-08-20T21:18:25;11.00;;;9.95;;
76731;SDS011;65656;51.130;13.658;2023-08-20T21:22:26;11.27;;;10.27;;
76731;SDS011;65656;51.130;13.658;2023-08-20T21:26:29;11.80;;;9.52;;
76731;SDS011;65656;51.130;13.658;2023-08-20T21:30:31;10.43;;;9.35;;
76731;SDS011;65656;51.130;13.658;2023-08-20T21:34:33;10.50;;;9.45;;
76731;SDS011;65656;51.130;13.658;2023-08-20T21:38:34;12.25;;;11.20;;
76731;SDS011;65656;51.130;13.658;2023-08-20T21:42:37;12.13;;;11.13;;
76731;SDS011;65656;51.130;13.658;2023-08-20T21:46:39;12.60;;;10.95;;
76731;SDS011;65656;51.130;13.658;2023-08-20T21:50:41;11.55;;;10.38;;
76731;SDS011;65656;51.130;13.658;2023-08-20T21:54:43;11.63;;;10.55;;
76731;SDS011;65656;51.130;13.658;2023-08-20T21:58:45;12.07;;;10.93;;
76731;SDS011;65656;51.130;13.658;2023-08-20T22:02:47;10.32;;;9.50;;
76731;SDS011;65656;51.130;13.658;2023-08-20T22:06:51;11.85;;;10.65;;
76731;SDS011;65656;51.130;13.658;2023-08-20T22:10:54;11.60;;;10.60;;
76731;SDS011;65656;51.130;13.658;2023-08-20T22:14:58;11.48;;;9.35;;
76731;SDS011;65656;51.130;13.658;2023-08-20T22:18:59;11.60;;;10.50;;
76731;SDS011;65656;51.130;13.658;2023-08-20T22:23:01;10.60;;;9.55;;
76731;SDS011;65656;51.130;13.658;2023-08-20T22:27:03;13.82;;;10.45;;
76731;SDS011;65656;51.130;13.658;2023-08-20T22:31:06;17.15;;;15.60;;
76731;SDS011;65656;51.130;13.658;2023-08-20T22:35:07;13.68;;;12.18;;
76731;SDS011;65656;51.130;13.658;2023-08-20T22:39:09;14.68;;;13.27;;
76731;SDS011;65656;51.130;13.658;2023-08-20T22:43:11;11.13;;;10.20;;
76731;SDS011;65656;51.130;13.658;2023-08-20T22:47:14;11.68;;;10.57;;
76731;SDS011;65656;51.130;13.658;2023-08-20T22:51:16;9.90;;;8.55;;
76731;SDS011;65656;51.130;13.658;2023-08-20T22:55:17;10.77;;;9.77;;
76731;SDS011;65656;51.130;13.658;2023-08-20T22:59:19;12.75;;;11.45;;
76731;SDS011;65656;51.130;13.658;2023-08-20T23:03:22;10.15;;;9.10;;
76731;SDS011;65656;51.130;13.658;2023-08-20T23:07:23;10.60;;;9.52;;
76731;SDS011;65656;51.130;13.658;2023-08-20T23:11:25;10.30;;;6.85;;
76731;SDS011;65656;51.130;13.658;2023-08-20T23:15:27;12.38;;;11.27;;
76731;SDS011;65656;51.130;13.658;2023-08-20T23:19:29;9.10;;;8.02;;
76731;SDS011;65656;51.130;13.658;2023-08-20T23:23:31;12.48;;;11.40;;
76731;SDS011;65656;51.130;13.658;2023-08-20T23:27:33;12.10;;;11.05;;
76731;SDS011;65656;51.130;13.658;2023-08-20T23:31:34;14.70;;;13.45;;
76731;SDS011;65656;51.130;13.658;2023-08-20T23:35:37;11.48;;;10.48;;